createdAt,value
2022-12-09T00:00:11.991Z,48.73
2022-12-09T00:02:40.803Z,40.23
2022-12-09T00:05:10.298Z,41.27
2022-12-09T00:07:38.826Z,38.23
2022-12-09T00:10:09.173Z,39.37
2022-12-09T00:12:37.451Z,45.10
2022-12-09T00:15:08.860Z,40.23
2022-12-09T00:17:37.269Z,53.50
2022-12-09T00:20:07.712Z,47.10
2022-12-09T00:22:36.431Z,45.37
2022-12-09T00:25:04.896Z,41.07
2022-12-09T00:27:33.383Z,41.43
2022-12-09T00:30:01.622Z,38.77
2022-12-09T00:32:31.468Z,38.90
2022-12-09T00:34:59.793Z,35.33
2022-12-09T00:37:28.170Z,33.80
2022-12-09T00:39:56.409Z,36.07
2022-12-09T00:42:24.675Z,34.23
2022-12-09T00:44:52.886Z,33.63
2022-12-09T00:47:21.433Z,34.30
2022-12-09T00:49:51.274Z,31.40
2022-12-09T00:52:19.665Z,34.40
2022-12-09T00:54:48.195Z,35.07
2022-12-09T00:57:16.492Z,31.90
2022-12-09T00:59:45.043Z,32.53
2022-12-09T01:02:13.675Z,37.60
2022-12-09T01:04:42.008Z,38.97
2022-12-09T01:07:12.973Z,40.00
2022-12-09T01:09:41.278Z,39.43
2022-12-09T01:12:12.163Z,33.87
2022-12-09T01:14:40.784Z,35.47
2022-12-09T01:17:09.358Z,34.30
2022-12-09T01:19:37.814Z,37.17
2022-12-09T01:22:06.022Z,38.80
2022-12-09T01:24:35.642Z,32.53
2022-12-09T01:27:03.978Z,36.77
2022-12-09T01:29:32.257Z,36.77
2022-12-09T01:32:00.974Z,35.17
2022-12-09T01:34:29.477Z,34.90
2022-12-09T01:36:57.913Z,40.07
2022-12-09T01:39:26.303Z,34.33
2022-12-09T01:41:56.089Z,37.57
2022-12-09T01:44:27.289Z,37.70
2022-12-09T01:46:57.620Z,32.63
2022-12-09T01:49:30.338Z,37.30
2022-12-09T01:52:06.715Z,35.23
2022-12-09T01:54:35.394Z,36.80
2022-12-09T01:57:06.540Z,34.97
2022-12-09T01:59:35.916Z,35.17
2022-12-09T02:02:06.911Z,36.47
2022-12-09T02:04:41.302Z,39.07
2022-12-09T02:07:11.837Z,40.80
2022-12-09T02:09:40.998Z,37.07
2022-12-09T02:12:15.404Z,38.97
2022-12-09T02:14:51.133Z,40.23
2022-12-09T02:17:31.166Z,39.60
2022-12-09T02:20:10.545Z,44.77
2022-12-09T02:22:44.642Z,41.43
2022-12-09T02:25:25.319Z,37.50
2022-12-09T02:28:36.202Z,36.63
2022-12-09T02:31:21.517Z,39.27
2022-12-09T02:34:19.010Z,45.50
2022-12-09T02:37:00.421Z,45.03
2022-12-09T02:39:35.556Z,42.80
2022-12-09T02:42:06.116Z,39.73
2022-12-09T02:44:36.683Z,40.77
2022-12-09T02:47:07.995Z,40.53
2022-12-09T02:49:40.293Z,40.47
2022-12-09T02:52:09.749Z,41.63
2022-12-09T02:54:40.241Z,40.83
2022-12-09T02:57:24.651Z,42.70
2022-12-09T02:59:53.080Z,42.43
2022-12-09T03:02:28.432Z,39.80
2022-12-09T03:05:11.311Z,36.83
2022-12-09T03:07:46.282Z,47.40
2022-12-09T03:10:22.009Z,42.27
2022-12-09T03:12:56.441Z,44.07
2022-12-09T03:15:29.211Z,40.87
2022-12-09T03:17:59.896Z,46.67
2022-12-09T03:20:31.774Z,51.13
2022-12-09T03:23:03.531Z,48.80
2022-12-09T03:25:35.711Z,41.63
2022-12-09T03:28:07.443Z,42.40
2022-12-09T03:30:42.007Z,45.30
2022-12-09T03:33:11.500Z,47.10
2022-12-09T03:35:45.209Z,44.40
2022-12-09T03:38:18.809Z,46.30
2022-12-09T03:40:52.040Z,46.97
2022-12-09T03:43:25.504Z,48.00
2022-12-09T03:45:54.688Z,47.50
2022-12-09T03:48:25.105Z,48.17
2022-12-09T03:51:01.170Z,46.73
2022-12-09T03:53:37.922Z,45.30
2022-12-09T03:56:16.826Z,47.63
2022-12-09T03:58:49.167Z,51.37
2022-12-09T04:01:18.441Z,46.63
2022-12-09T04:03:50.825Z,47.63
2022-12-09T04:06:20.808Z,47.93
2022-12-09T04:08:50.172Z,42.07
2022-12-09T04:11:18.489Z,47.90
2022-12-09T04:13:46.870Z,47.67
2022-12-09T04:16:15.583Z,46.10
2022-12-09T04:18:44.247Z,50.67
2022-12-09T04:21:15.331Z,45.47
2022-12-09T04:23:45.107Z,44.90
2022-12-09T04:26:16.335Z,47.83
2022-12-09T04:28:45.181Z,48.60
2022-12-09T04:31:14.679Z,47.70
2022-12-09T04:33:44.061Z,50.43
2022-12-09T04:36:16.584Z,48.40
2022-12-09T04:38:47.148Z,53.97
2022-12-09T04:41:16.954Z,47.50
2022-12-09T04:43:45.685Z,53.77
2022-12-09T04:46:16.977Z,53.73
2022-12-09T04:48:46.501Z,51.93
2022-12-09T04:51:17.192Z,52.07
2022-12-09T04:53:47.098Z,54.30
2022-12-09T04:56:19.094Z,45.07
2022-12-09T04:58:48.585Z,47.40
2022-12-09T05:01:24.781Z,45.90
2022-12-09T05:03:56.992Z,50.70
2022-12-09T05:06:25.851Z,51.07
2022-12-09T05:08:56.535Z,50.50
2022-12-09T05:11:25.900Z,52.03
2022-12-09T05:13:55.329Z,50.20
2022-12-09T05:16:24.090Z,49.73
2022-12-09T05:18:53.269Z,51.83
2022-12-09T05:21:23.128Z,52.07
2022-12-09T05:23:52.275Z,48.83
2022-12-09T05:26:24.457Z,50.70
2022-12-09T05:28:54.882Z,56.77
2022-12-09T05:31:24.745Z,52.83
2022-12-09T05:33:54.131Z,52.97
2022-12-09T05:36:25.479Z,52.23
2022-12-09T05:38:54.681Z,54.00
2022-12-09T05:41:25.253Z,53.50
2022-12-09T05:43:54.689Z,49.57
2022-12-09T05:46:23.468Z,55.40
2022-12-09T05:48:52.461Z,51.57
2022-12-09T05:51:25.441Z,56.07
2022-12-09T05:53:55.747Z,52.10
2022-12-09T05:56:26.703Z,54.73
2022-12-09T05:58:56.519Z,51.37
2022-12-09T06:01:26.544Z,57.93
2022-12-09T06:03:56.724Z,58.03
2022-12-09T06:06:28.051Z,58.80
2022-12-09T06:08:58.773Z,56.43
2022-12-09T06:11:29.335Z,47.07
2022-12-09T06:13:58.474Z,54.33
2022-12-09T06:16:27.329Z,54.73
2022-12-09T06:18:56.244Z,59.17
2022-12-09T06:21:25.555Z,75.70
2022-12-09T06:23:54.911Z,58.37
2022-12-09T06:26:26.412Z,62.60
2022-12-09T06:28:57.590Z,79.13
2022-12-09T06:31:26.898Z,64.93
2022-12-09T06:33:57.990Z,65.03
2022-12-09T06:36:31.406Z,60.97
2022-12-09T06:39:09.545Z,73.40
2022-12-09T06:41:40.786Z,62.70
2022-12-09T06:44:14.306Z,58.47
2022-12-09T06:46:45.662Z,63.57
2022-12-09T06:49:14.409Z,64.40
2022-12-09T06:51:42.826Z,55.47
2022-12-09T06:54:11.169Z,65.10
2022-12-09T06:56:39.739Z,73.20
2022-12-09T06:59:11.323Z,69.20
2022-12-09T07:01:40.911Z,76.53
2022-12-09T07:04:09.436Z,67.90
2022-12-09T07:06:40.247Z,66.20
2022-12-09T07:09:11.425Z,73.77
2022-12-09T07:11:40.534Z,73.47
2022-12-09T07:14:11.636Z,76.30
2022-12-09T07:16:40.750Z,79.17
2022-12-09T07:19:09.734Z,65.23
2022-12-09T07:21:38.363Z,69.33
2022-12-09T07:24:07.718Z,77.77
2022-12-09T07:26:37.079Z,71.50
2022-12-09T07:29:06.625Z,66.87
2022-12-09T07:31:37.498Z,67.80
2022-12-09T07:34:06.833Z,79.03
2022-12-09T07:36:38.058Z,70.23
2022-12-09T07:39:09.617Z,75.70
2022-12-09T07:41:38.124Z,68.80
2022-12-09T07:44:06.857Z,73.57
2022-12-09T07:46:36.647Z,85.40
2022-12-09T07:49:07.305Z,77.83
2022-12-09T07:51:36.304Z,83.87
2022-12-09T07:54:05.466Z,80.53
2022-12-09T07:56:34.383Z,81.40
2022-12-09T07:59:02.804Z,80.80
2022-12-09T08:01:31.721Z,76.53
2022-12-09T08:04:02.523Z,91.77
2022-12-09T08:06:32.213Z,88.00
2022-12-09T08:09:02.049Z,81.23
2022-12-09T08:11:33.152Z,89.83
2022-12-09T08:14:11.064Z,73.53
2022-12-09T08:16:41.867Z,86.37
2022-12-09T08:19:13.307Z,85.63
2022-12-09T08:21:42.425Z,87.43
2022-12-09T08:24:13.775Z,85.10
2022-12-09T08:26:43.293Z,80.13
2022-12-09T08:29:14.372Z,88.93
2022-12-09T08:31:47.295Z,87.23
2022-12-09T08:34:23.149Z,82.87
2022-12-09T08:36:52.954Z,89.30
2022-12-09T08:39:24.049Z,83.40
2022-12-09T08:41:52.398Z,85.90
2022-12-09T08:44:22.835Z,82.37
2022-12-09T08:46:52.989Z,87.40
2022-12-09T08:49:25.148Z,85.20
2022-12-09T08:51:54.741Z,79.67
2022-12-09T08:54:24.015Z,79.83
2022-12-09T08:56:56.254Z,73.93
2022-12-09T08:59:25.413Z,92.93
2022-12-09T09:01:54.510Z,81.83
2022-12-09T09:04:24.580Z,79.37
2022-12-09T09:06:54.181Z,88.60
2022-12-09T09:09:23.786Z,91.50
2022-12-09T09:11:52.761Z,89.90
2022-12-09T09:14:21.088Z,85.03
2022-12-09T09:16:49.994Z,86.43
2022-12-09T09:19:22.601Z,89.13
2022-12-09T09:21:53.264Z,85.37
2022-12-09T09:24:25.159Z,91.47
2022-12-09T09:26:54.779Z,105.37
2022-12-09T09:29:24.972Z,111.07
2022-12-09T09:31:55.230Z,104.10
2022-12-09T09:34:26.147Z,101.83
2022-12-09T09:36:56.870Z,94.23
2022-12-09T09:39:25.904Z,95.23
2022-12-09T09:41:57.400Z,92.87
2022-12-09T09:44:32.601Z,99.27
2022-12-09T09:47:05.424Z,90.27
2022-12-09T09:49:37.712Z,93.60
2022-12-09T09:52:12.702Z,93.47
2022-12-09T09:54:41.644Z,95.83
2022-12-09T09:57:17.276Z,95.17
2022-12-09T10:00:08.451Z,94.93
2022-12-09T10:03:01.129Z,115.33
2022-12-09T10:05:34.224Z,111.33
2022-12-09T10:08:28.021Z,123.57
2022-12-09T10:11:09.230Z,128.67
2022-12-09T10:13:49.444Z,129.60
2022-12-09T10:16:23.138Z,124.60
2022-12-09T10:19:08.188Z,119.43
2022-12-09T10:21:43.415Z,127.47
2022-12-09T10:24:25.037Z,124.50
2022-12-09T10:27:03.635Z,121.90
2022-12-09T10:29:56.769Z,119.97
2022-12-09T10:32:29.056Z,129.97
2022-12-09T10:34:59.273Z,112.70
2022-12-09T10:37:33.029Z,119.67
2022-12-09T10:40:22.125Z,116.53
2022-12-09T10:43:11.728Z,127.03
2022-12-09T10:48:39.737Z,121.53
2022-12-09T10:51:14.125Z,113.40
2022-12-09T10:53:48.725Z,120.60
2022-12-09T10:56:26.701Z,115.37
2022-12-09T10:59:11.961Z,122.60
2022-12-09T11:01:52.209Z,118.57
2022-12-09T11:04:26.343Z,107.43
2022-12-09T11:07:00.223Z,114.20
2022-12-09T11:09:32.259Z,116.37
2022-12-09T11:12:05.724Z,117.30
2022-12-09T11:14:38.257Z,116.70
2022-12-09T11:17:17.052Z,108.33
2022-12-09T11:19:51.332Z,112.90
2022-12-09T11:22:39.142Z,111.33
2022-12-09T11:25:23.801Z,109.60
2022-12-09T11:27:57.764Z,99.97
2022-12-09T11:30:29.288Z,117.90
2022-12-09T11:33:09.925Z,90.53
2022-12-09T11:35:53.653Z,101.67
2022-12-09T11:38:40.237Z,104.50
2022-12-09T11:41:41.539Z,102.27
2022-12-09T11:44:26.763Z,96.43
2022-12-09T11:47:02.450Z,98.67
2022-12-09T11:49:33.998Z,94.20
2022-12-09T11:52:24.475Z,91.87
2022-12-09T11:55:10.679Z,98.20
2022-12-09T11:57:47.945Z,98.40
2022-12-09T12:00:23.700Z,103.73
2022-12-09T12:03:04.019Z,97.27
2022-12-09T12:05:38.303Z,88.10
2022-12-09T12:08:17.745Z,100.40
2022-12-09T12:10:51.244Z,98.57
2022-12-09T12:13:24.699Z,95.07
2022-12-09T12:16:07.025Z,93.30
2022-12-09T12:18:42.815Z,85.90
2022-12-09T12:21:51.042Z,94.37
2022-12-09T12:24:42.262Z,94.33
2022-12-09T12:27:29.524Z,89.93
2022-12-09T12:30:04.999Z,98.47
2022-12-09T12:33:11.736Z,92.10
2022-12-09T12:35:56.136Z,91.53
2022-12-09T12:38:51.548Z,85.27
2022-12-09T12:41:37.585Z,80.50
2022-12-09T12:44:41.757Z,90.33
2022-12-09T12:47:25.960Z,89.47
2022-12-09T12:50:23.704Z,91.83
2022-12-09T12:53:03.397Z,84.17
2022-12-09T12:56:01.034Z,88.17
2022-12-09T12:58:47.571Z,91.63
2022-12-09T13:01:32.129Z,84.43
2022-12-09T13:04:14.143Z,84.10
2022-12-09T13:06:52.163Z,85.50
2022-12-09T13:09:26.986Z,82.13
2022-12-09T13:12:08.514Z,78.50
2022-12-09T13:14:52.837Z,77.27
2022-12-09T13:17:26.499Z,73.87
2022-12-09T13:20:00.036Z,85.30
2022-12-09T13:22:41.290Z,79.60
2022-12-09T13:25:25.568Z,79.53
2022-12-09T13:28:00.744Z,78.33
2022-12-09T13:30:39.001Z,72.67
2022-12-09T13:33:32.030Z,74.40
2022-12-09T13:36:06.794Z,72.90
2022-12-09T13:38:40.720Z,67.67
2022-12-09T13:42:05.186Z,74.07
2022-12-09T13:44:37.713Z,74.83
2022-12-09T13:47:27.836Z,76.93
2022-12-09T13:50:02.452Z,71.77
2022-12-09T13:52:56.611Z,63.10
2022-12-09T13:55:41.165Z,69.27
2022-12-09T13:59:01.885Z,70.70
2022-12-09T14:01:37.386Z,70.67
2022-12-09T14:04:14.441Z,71.57
2022-12-09T14:07:10.364Z,69.80
2022-12-09T14:09:49.082Z,68.83
2022-12-09T14:13:03.532Z,64.97
2022-12-09T14:15:39.986Z,69.67
2022-12-09T14:18:32.997Z,66.20
2022-12-09T14:21:30.605Z,72.93
2022-12-09T14:24:36.697Z,63.40
2022-12-09T14:27:19.658Z,69.30
2022-12-09T14:29:53.558Z,74.43
2022-12-09T14:32:27.677Z,60.87
2022-12-09T14:35:23.495Z,62.43
2022-12-09T14:38:16.863Z,62.50
2022-12-09T14:40:58.120Z,66.60
2022-12-09T14:43:57.593Z,61.40
2022-12-09T14:46:30.142Z,60.77
2022-12-09T14:49:03.497Z,56.93
2022-12-09T14:51:36.675Z,54.37
2022-12-09T14:54:09.426Z,57.63
2022-12-09T14:56:37.846Z,60.73
2022-12-09T14:59:19.329Z,56.83
2022-12-09T15:01:54.438Z,57.73
2022-12-09T15:04:31.851Z,62.93
2022-12-09T15:07:16.317Z,57.90
2022-12-09T15:09:57.077Z,54.50
2022-12-09T15:12:31.215Z,53.00
2022-12-09T15:15:07.171Z,60.07
2022-12-09T15:17:43.497Z,60.80
2022-12-09T15:20:28.997Z,67.27
2022-12-09T15:23:00.677Z,66.40
2022-12-09T15:25:29.678Z,65.33
2022-12-09T15:28:00.499Z,74.33
2022-12-09T15:30:35.186Z,62.50
2022-12-09T15:33:04.790Z,69.53
2022-12-09T15:35:34.562Z,64.70
2022-12-09T15:38:07.499Z,67.30
2022-12-09T15:40:38.158Z,72.83
2022-12-09T15:43:12.651Z,70.23
2022-12-09T15:45:45.322Z,74.07
2022-12-09T15:48:18.043Z,72.87
2022-12-09T15:50:51.470Z,72.40
2022-12-09T15:53:25.298Z,71.87
2022-12-09T15:55:57.885Z,81.53
2022-12-09T15:58:30.543Z,68.97
2022-12-09T16:01:00.374Z,73.30
2022-12-09T16:03:32.724Z,75.03
2022-12-09T16:06:05.256Z,81.50
2022-12-09T16:08:36.349Z,82.40
2022-12-09T16:11:05.637Z,80.13
2022-12-09T16:13:34.186Z,78.50
2022-12-09T16:16:28.284Z,81.10
2022-12-09T16:18:56.933Z,77.30
2022-12-09T16:21:29.281Z,73.77
2022-12-09T16:24:07.160Z,78.07
2022-12-09T16:26:38.756Z,71.73
2022-12-09T16:29:16.511Z,70.33
2022-12-09T16:31:46.166Z,75.60
2022-12-09T16:34:21.986Z,71.17
2022-12-09T16:36:55.919Z,70.67
2022-12-09T16:39:35.558Z,77.60
2022-12-09T16:42:04.221Z,78.57
2022-12-09T16:44:36.905Z,71.83
2022-12-09T16:47:13.796Z,71.43
2022-12-09T16:49:44.274Z,75.47
2022-12-09T16:52:15.369Z,83.53
2022-12-09T16:54:45.688Z,84.07
2022-12-09T16:57:15.694Z,79.67
2022-12-09T16:59:45.207Z,88.93
2022-12-09T17:02:26.399Z,93.67
2022-12-09T17:04:54.870Z,90.07
2022-12-09T17:07:23.093Z,98.57
2022-12-09T17:09:51.293Z,92.60
2022-12-09T17:12:19.569Z,90.00
2022-12-09T17:14:47.883Z,96.30
2022-12-09T17:17:16.156Z,95.40
2022-12-09T17:19:46.679Z,93.10
2022-12-09T17:22:14.907Z,79.27
2022-12-09T17:24:43.363Z,87.63
2022-12-09T17:27:11.588Z,82.90
2022-12-09T17:29:39.924Z,73.17
2022-12-09T17:32:08.499Z,78.70
2022-12-09T17:34:36.766Z,76.53
2022-12-09T17:37:06.934Z,73.77
2022-12-09T17:39:35.690Z,59.63
2022-12-09T17:42:03.999Z,60.70
2022-12-09T17:44:32.273Z,58.63
2022-12-09T17:47:00.604Z,61.70
2022-12-09T17:49:28.874Z,58.87
2022-12-09T17:51:57.193Z,67.50
2022-12-09T17:54:26.815Z,60.67
2022-12-09T17:56:55.043Z,67.27
2022-12-09T17:59:23.240Z,64.10
2022-12-09T18:01:51.440Z,73.77
2022-12-09T18:04:19.712Z,63.33
2022-12-09T18:06:48.220Z,66.17
2022-12-09T18:09:19.834Z,64.03
2022-12-09T18:11:51.703Z,65.03
2022-12-09T18:14:20.537Z,64.93
2022-12-09T18:16:50.117Z,64.87
2022-12-09T18:19:20.761Z,69.37
2022-12-09T18:21:50.219Z,62.10
2022-12-09T18:24:18.749Z,74.33
2022-12-09T18:26:49.694Z,56.87
2022-12-09T18:29:18.050Z,64.20
2022-12-09T18:31:50.449Z,58.23
2022-12-09T18:34:21.185Z,60.33
2022-12-09T18:36:49.461Z,62.57
2022-12-09T18:39:18.127Z,67.40
2022-12-09T18:41:47.989Z,59.30
2022-12-09T18:44:17.577Z,64.70
2022-12-09T18:46:49.217Z,67.87
2022-12-09T18:49:23.572Z,63.57
2022-12-09T18:51:53.391Z,82.43
2022-12-09T18:54:24.710Z,56.63
2022-12-09T18:56:54.923Z,69.67
2022-12-09T18:59:25.462Z,65.20
2022-12-09T19:01:54.074Z,71.17
2022-12-09T19:04:25.660Z,67.37
2022-12-09T19:06:57.299Z,74.20
2022-12-09T19:09:28.545Z,66.80
2022-12-09T19:12:11.285Z,69.27
2022-12-09T19:14:47.556Z,71.10
2022-12-09T19:17:15.812Z,74.73
2022-12-09T19:19:45.328Z,76.90
2022-12-09T19:22:13.562Z,73.53
2022-12-09T19:24:43.421Z,77.57
2022-12-09T19:27:13.946Z,75.60
2022-12-09T19:29:42.376Z,74.90
2022-12-09T19:32:36.450Z,75.00
2022-12-09T19:34:58.975Z,87.93
2022-12-09T19:37:27.272Z,96.90
2022-12-09T19:39:55.609Z,82.50
2022-12-09T19:42:25.238Z,78.83
2022-12-09T19:45:01.280Z,80.27
2022-12-09T19:47:29.964Z,85.23
2022-12-09T19:49:58.231Z,75.00
2022-12-09T19:52:27.975Z,61.73
2022-12-09T19:54:57.852Z,74.53
2022-12-09T19:57:27.524Z,75.70
2022-12-09T19:59:55.824Z,66.47
2022-12-09T20:02:24.056Z,74.63
2022-12-09T20:04:52.555Z,71.03
2022-12-09T20:07:21.533Z,74.70
2022-12-09T20:09:50.158Z,73.23
2022-12-09T20:12:18.446Z,71.30
2022-12-09T20:14:48.078Z,72.70
2022-12-09T20:17:17.385Z,78.17
2022-12-09T20:19:45.636Z,76.60
2022-12-09T20:22:13.872Z,82.77
2022-12-09T20:24:43.214Z,81.43
2022-12-09T20:27:11.529Z,78.53
2022-12-09T20:29:41.159Z,77.30
2022-12-09T20:32:11.005Z,81.27
2022-12-09T20:34:39.613Z,79.67
2022-12-09T20:37:08.028Z,81.83
2022-12-09T20:39:36.335Z,77.37
2022-12-09T20:42:04.792Z,80.33
2022-12-09T20:44:33.393Z,68.93
2022-12-09T20:47:01.666Z,81.30
2022-12-09T20:49:31.415Z,75.33
2022-12-09T20:52:05.780Z,73.83
2022-12-09T20:54:34.055Z,73.73
2022-12-09T20:57:02.306Z,73.50
2022-12-09T20:59:30.579Z,75.53
2022-12-09T21:01:58.855Z,77.93
2022-12-09T21:04:27.140Z,73.33
2022-12-09T21:06:57.364Z,79.83
2022-12-09T21:09:27.232Z,82.40
2022-12-09T21:11:55.524Z,87.03
2022-12-09T21:14:29.416Z,82.47
2022-12-09T21:17:00.818Z,72.17
2022-12-09T21:19:30.413Z,81.97
2022-12-09T21:22:00.127Z,76.63
2022-12-09T21:24:28.681Z,80.40
2022-12-09T21:26:57.288Z,82.60
2022-12-09T21:29:31.731Z,79.73
2022-12-09T21:32:01.706Z,75.60
2022-12-09T21:34:30.142Z,81.63
2022-12-09T21:36:59.789Z,85.47
2022-12-09T21:39:29.122Z,88.47
2022-12-09T21:41:57.501Z,80.93
2022-12-09T21:44:27.261Z,82.30
2022-12-09T21:46:55.634Z,92.80
2022-12-09T21:49:24.059Z,88.87
2022-12-09T21:51:52.384Z,83.37
2022-12-09T21:54:22.017Z,83.70
2022-12-09T21:56:50.494Z,82.97
2022-12-09T21:59:19.081Z,87.67
2022-12-09T22:01:47.519Z,87.57
2022-12-09T22:04:17.376Z,82.10
2022-12-09T22:06:49.559Z,78.67
2022-12-09T22:09:21.652Z,92.37
2022-12-09T22:11:50.143Z,80.10
2022-12-09T22:14:18.684Z,86.03
2022-12-09T22:16:47.466Z,78.97
2022-12-09T22:19:21.037Z,79.47
2022-12-09T22:21:51.109Z,81.70
2022-12-09T22:24:21.386Z,79.73
2022-12-09T22:26:49.710Z,81.20
2022-12-09T22:29:19.874Z,84.00
2022-12-09T22:31:48.643Z,83.77
2022-12-09T22:34:19.910Z,88.23
2022-12-09T22:36:49.401Z,80.33
2022-12-09T22:39:22.111Z,78.23
2022-12-09T22:41:50.934Z,91.57
2022-12-09T22:44:21.008Z,76.60
2022-12-09T22:46:49.990Z,79.87
2022-12-09T22:49:18.699Z,81.87
2022-12-09T22:51:47.836Z,81.13
2022-12-09T22:54:16.592Z,87.73
2022-12-09T22:56:46.364Z,81.10
2022-12-09T22:59:16.054Z,86.90
2022-12-09T23:01:48.499Z,84.53
2022-12-09T23:04:21.657Z,93.27
2022-12-09T23:06:51.136Z,92.60
2022-12-09T23:09:22.435Z,89.50
2022-12-09T23:11:53.386Z,84.37
2022-12-09T23:14:21.862Z,81.53
2022-12-09T23:16:50.352Z,87.93
2022-12-09T23:19:18.586Z,80.57
2022-12-09T23:21:47.119Z,85.73
2022-12-09T23:24:24.704Z,91.90
2022-12-09T23:26:56.742Z,88.47
2022-12-09T23:29:25.086Z,82.93
2022-12-09T23:31:53.574Z,88.57
2022-12-09T23:34:21.811Z,86.63
2022-12-09T23:36:50.089Z,86.87
2022-12-09T23:39:20.147Z,84.67
2022-12-09T23:41:49.389Z,76.57
2022-12-09T23:44:20.120Z,85.97
2022-12-09T23:46:48.558Z,92.13
2022-12-09T23:49:17.707Z,79.73
2022-12-09T23:51:46.248Z,84.33
2022-12-09T23:54:16.762Z,84.23
2022-12-09T23:56:50.267Z,82.50
2022-12-09T23:59:22.703Z,87.60
